createdAt,value
2019-06-21T00:01:57.435Z,19.00
2019-06-21T00:04:27.107Z,19.00
2019-06-21T00:06:56.746Z,18.80
2019-06-21T00:09:26.329Z,18.50
2019-06-21T00:11:56.048Z,18.50
2019-06-21T00:14:25.747Z,18.80
2019-06-21T00:16:55.473Z,19.20
2019-06-21T00:19:25.110Z,19.00
2019-06-21T00:21:54.870Z,19.10
2019-06-21T00:24:24.473Z,19.90
2019-06-21T00:26:55.262Z,20.20
2019-06-21T00:29:24.888Z,20.80
2019-06-21T00:31:54.570Z,21.10
2019-06-21T00:34:24.293Z,20.90
2019-06-21T00:36:53.960Z,21.00
2019-06-21T00:39:23.585Z,21.40
2019-06-21T00:41:53.381Z,20.50
2019-06-21T00:44:23.000Z,20.80
2019-06-21T00:46:52.638Z,20.10
2019-06-21T00:49:22.250Z,20.10
2019-06-21T00:51:52.069Z,20.10
2019-06-21T00:54:21.728Z,20.10
2019-06-21T00:56:51.480Z,19.90
2019-06-21T00:59:21.109Z,20.80
2019-06-21T01:01:50.748Z,20.20
2019-06-21T01:04:40.469Z,20.00
2019-06-21T01:07:15.048Z,20.00
2019-06-21T01:09:45.762Z,20.10
2019-06-21T01:12:15.408Z,20.10
2019-06-21T01:14:45.028Z,19.60
2019-06-21T01:17:14.839Z,19.60
2019-06-21T01:19:44.420Z,19.20
2019-06-21T01:22:14.059Z,19.60
2019-06-21T01:24:43.701Z,18.70
2019-06-21T01:27:13.397Z,18.60
2019-06-21T01:29:42.989Z,19.20
2019-06-21T01:32:12.772Z,19.80
2019-06-21T01:34:42.424Z,20.90
2019-06-21T01:37:12.070Z,21.00
2019-06-21T01:39:41.756Z,20.80
2019-06-21T01:42:11.411Z,20.90
2019-06-21T01:44:41.020Z,21.10
2019-06-21T01:47:10.753Z,21.20
2019-06-21T01:49:40.371Z,20.40
2019-06-21T01:52:10.068Z,20.80
2019-06-21T01:54:39.695Z,21.60
2019-06-21T01:57:09.410Z,21.80
2019-06-21T01:59:39.039Z,22.10
2019-06-21T02:02:08.674Z,22.20
2019-06-21T02:04:38.369Z,22.00
2019-06-21T02:07:08.112Z,22.20
2019-06-21T02:09:37.783Z,22.80
2019-06-21T02:12:07.436Z,22.80
2019-06-21T02:14:37.141Z,23.60
2019-06-21T02:17:06.853Z,23.30
2019-06-21T02:19:36.475Z,23.30
2019-06-21T02:22:08.184Z,24.00
2019-06-21T02:24:37.460Z,23.60
2019-06-21T02:27:07.258Z,24.00
2019-06-21T02:29:36.871Z,24.40
2019-06-21T02:32:06.641Z,23.40
2019-06-21T02:34:36.246Z,22.80
2019-06-21T02:37:05.985Z,22.80
2019-06-21T02:39:35.582Z,22.80
2019-06-21T02:42:05.305Z,22.70
2019-06-21T02:44:34.902Z,22.80
2019-06-21T02:47:04.589Z,22.80
2019-06-21T02:49:34.194Z,23.50
2019-06-21T02:52:03.843Z,22.80
2019-06-21T02:54:33.420Z,22.70
2019-06-21T02:57:03.366Z,22.70
2019-06-21T02:59:32.953Z,22.70
2019-06-21T03:02:02.620Z,22.40
2019-06-21T03:04:32.262Z,22.30
2019-06-21T03:07:01.916Z,22.80
2019-06-21T03:09:31.520Z,22.60
2019-06-21T03:12:01.162Z,22.40
2019-06-21T03:14:30.776Z,21.90
2019-06-21T03:17:00.478Z,21.40
2019-06-21T03:19:30.082Z,20.90
2019-06-21T03:21:59.743Z,20.30
2019-06-21T03:24:29.377Z,19.30
2019-06-21T03:26:58.975Z,16.90
2019-06-21T03:29:28.599Z,14.70
2019-06-21T03:31:58.219Z,14.50
2019-06-21T03:34:30.345Z,14.00
2019-06-21T03:36:59.960Z,15.70
2019-06-21T03:39:35.265Z,15.90
2019-06-21T03:42:00.820Z,15.00
2019-06-21T03:44:30.526Z,17.80
2019-06-21T03:47:00.173Z,18.70
2019-06-21T03:49:29.934Z,19.00
2019-06-21T03:51:59.646Z,19.40
2019-06-21T03:54:29.329Z,19.70
2019-06-21T03:56:58.997Z,19.00
2019-06-21T03:59:28.646Z,18.60
2019-06-21T04:01:58.262Z,20.20
2019-06-21T04:04:27.955Z,19.80
2019-06-21T04:06:57.580Z,20.60
2019-06-21T04:09:27.230Z,20.60
2019-06-21T04:11:56.875Z,21.30
2019-06-21T04:14:26.543Z,20.80
2019-06-21T04:16:56.144Z,20.60
2019-06-21T04:19:25.950Z,19.70
2019-06-21T04:21:55.549Z,19.30
2019-06-21T04:24:25.190Z,19.90
2019-06-21T04:26:54.818Z,21.10
2019-06-21T04:29:24.520Z,20.40
2019-06-21T04:31:54.300Z,20.60
2019-06-21T04:34:24.078Z,19.50
2019-06-21T04:36:53.761Z,19.00
2019-06-21T04:39:23.409Z,18.80
2019-06-21T04:41:53.036Z,18.90
2019-06-21T04:44:22.702Z,19.20
2019-06-21T04:46:52.287Z,19.30
2019-06-21T04:49:22.024Z,19.30
2019-06-21T04:51:51.598Z,19.60
2019-06-21T04:54:21.241Z,19.30
2019-06-21T04:56:50.895Z,19.00
2019-06-21T04:59:23.244Z,20.50
2019-06-21T05:01:52.871Z,20.90
2019-06-21T05:04:22.539Z,22.10
2019-06-21T05:06:52.172Z,22.00
2019-06-21T05:09:21.957Z,23.10
2019-06-21T05:11:51.592Z,25.30
2019-06-21T05:14:21.343Z,25.40
2019-06-21T05:16:50.991Z,25.40
2019-06-21T05:19:20.599Z,27.70
2019-06-21T05:21:53.309Z,25.40
2019-06-21T05:24:24.032Z,25.20
2019-06-21T05:26:53.648Z,24.30
2019-06-21T05:29:23.326Z,26.00
2019-06-21T05:31:52.989Z,25.00
2019-06-21T05:34:22.660Z,25.80
2019-06-21T05:37:02.148Z,26.80
2019-06-21T05:39:23.612Z,25.50
2019-06-21T05:41:53.299Z,26.00
2019-06-21T05:44:22.952Z,27.00
2019-06-21T05:46:52.551Z,26.90
2019-06-21T05:49:22.218Z,26.60
2019-06-21T05:51:51.860Z,26.60
2019-06-21T05:54:21.531Z,26.60
2019-06-21T05:56:51.129Z,26.10
2019-06-21T05:59:20.845Z,28.20
2019-06-21T06:01:50.422Z,27.80
2019-06-21T06:04:20.111Z,27.30
2019-06-21T06:06:49.728Z,28.30
2019-06-21T06:09:19.432Z,28.40
2019-06-21T06:11:49.051Z,28.30
2019-06-21T06:14:18.894Z,29.10
2019-06-21T06:16:48.600Z,28.90
2019-06-21T06:19:18.276Z,29.00
2019-06-21T06:21:48.167Z,29.80
2019-06-21T06:24:17.838Z,29.10
2019-06-21T06:26:46.459Z,29.70
2019-06-21T06:29:16.210Z,29.80
2019-06-21T06:31:45.815Z,31.10
2019-06-21T06:34:15.489Z,30.70
2019-06-21T06:36:45.100Z,29.30
2019-06-21T06:39:14.727Z,32.00
2019-06-21T06:41:44.591Z,31.00
2019-06-21T06:44:14.285Z,29.00
2019-06-21T06:46:43.885Z,29.40
2019-06-21T06:49:13.528Z,29.50
2019-06-21T06:51:43.303Z,28.90
2019-06-21T06:54:12.903Z,28.30
2019-06-21T06:56:42.563Z,29.40
2019-06-21T06:59:12.335Z,28.80
2019-06-21T07:01:41.927Z,29.00
2019-06-21T07:04:11.536Z,28.60
2019-06-21T07:06:41.234Z,29.20
2019-06-21T07:09:10.825Z,27.90
2019-06-21T07:11:40.552Z,27.80
2019-06-21T07:14:13.256Z,29.90
2019-06-21T07:16:42.870Z,29.20
2019-06-21T07:19:12.544Z,31.20
2019-06-21T07:21:42.389Z,27.10
2019-06-21T07:24:11.994Z,29.30
2019-06-21T07:26:41.708Z,28.60
2019-06-21T07:29:11.355Z,29.20
2019-06-21T07:31:41.126Z,27.90
2019-06-21T07:34:10.797Z,27.80
2019-06-21T07:36:40.527Z,27.90
2019-06-21T07:39:10.154Z,29.80
2019-06-21T07:41:54.438Z,30.90
2019-06-21T07:44:11.086Z,31.00
2019-06-21T07:46:40.780Z,30.50
2019-06-21T07:49:10.382Z,31.50
2019-06-21T07:51:40.043Z,31.50
2019-06-21T07:54:09.745Z,29.20
2019-06-21T07:56:39.382Z,29.90
2019-06-21T07:59:09.125Z,29.40
2019-06-21T08:01:38.741Z,29.40
2019-06-21T08:04:08.343Z,28.30
2019-06-21T08:06:38.029Z,29.90
2019-06-21T08:09:08.731Z,29.10
2019-06-21T08:11:38.434Z,30.60
2019-06-21T08:14:09.955Z,31.50
2019-06-21T08:16:39.610Z,30.00
2019-06-21T08:19:09.275Z,29.10
2019-06-21T08:21:39.012Z,32.80
2019-06-21T08:24:07.641Z,31.50
2019-06-21T08:26:37.295Z,31.40
2019-06-21T08:29:06.957Z,30.00
2019-06-21T08:31:37.419Z,29.70
2019-06-21T08:34:08.715Z,30.40
2019-06-21T08:36:38.865Z,29.80
2019-06-21T08:39:10.261Z,30.70
2019-06-21T08:41:40.111Z,31.20
2019-06-21T08:44:12.697Z,30.20
2019-06-21T08:46:42.522Z,32.20
2019-06-21T08:49:12.453Z,33.40
2019-06-21T08:51:42.406Z,31.30
2019-06-21T08:54:13.440Z,31.30
2019-06-21T08:56:43.467Z,32.60
2019-06-21T08:59:14.642Z,32.90
2019-06-21T09:01:44.582Z,31.60
2019-06-21T09:04:14.847Z,31.50
2019-06-21T09:06:45.654Z,32.00
2019-06-21T09:09:16.475Z,32.60
2019-06-21T09:11:46.336Z,32.30
2019-06-21T09:14:16.650Z,30.30
2019-06-21T09:16:46.300Z,31.70
2019-06-21T09:19:16.128Z,30.50
2019-06-21T09:21:45.822Z,31.20
2019-06-21T09:24:17.460Z,32.80
2019-06-21T09:26:47.159Z,33.70
2019-06-21T09:29:16.908Z,30.30
2019-06-21T09:31:46.575Z,28.30
2019-06-21T09:34:16.193Z,29.40
2019-06-21T09:36:46.147Z,31.80
2019-06-21T09:39:15.796Z,30.90
2019-06-21T09:41:45.436Z,29.40
2019-06-21T09:44:15.217Z,31.80
2019-06-21T09:46:44.925Z,32.30
2019-06-21T09:49:14.509Z,30.40
2019-06-21T09:51:44.284Z,29.80
2019-06-21T09:54:13.940Z,30.40
2019-06-21T09:56:43.606Z,31.10
2019-06-21T09:59:13.447Z,35.20
2019-06-21T10:01:43.112Z,30.60
2019-06-21T10:04:12.704Z,29.40
2019-06-21T10:06:42.478Z,30.50
2019-06-21T10:09:12.097Z,30.10
2019-06-21T10:11:41.942Z,29.30
2019-06-21T10:14:11.756Z,31.10
2019-06-21T10:16:41.454Z,29.20
2019-06-21T10:19:11.160Z,30.00
2019-06-21T10:21:43.744Z,26.30
2019-06-21T10:24:13.389Z,28.90
2019-06-21T10:26:43.040Z,27.80
2019-06-21T10:29:12.816Z,28.30
2019-06-21T10:31:42.455Z,26.40
2019-06-21T10:34:12.902Z,28.30
2019-06-21T10:36:42.635Z,29.50
2019-06-21T10:39:12.283Z,28.10
2019-06-21T10:41:41.882Z,28.10
2019-06-21T10:44:14.013Z,28.30
2019-06-21T10:46:47.875Z,29.60
2019-06-21T10:49:18.063Z,25.10
2019-06-21T10:51:52.261Z,25.70
2019-06-21T10:54:22.915Z,27.00
2019-06-21T10:56:54.314Z,26.40
2019-06-21T10:59:24.518Z,27.10
2019-06-21T11:01:55.107Z,24.20
2019-06-21T11:04:24.898Z,22.60
2019-06-21T11:06:57.101Z,24.40
2019-06-21T11:09:28.208Z,22.60
2019-06-21T11:12:01.536Z,24.80
2019-06-21T11:14:32.745Z,23.10
2019-06-21T11:17:08.100Z,21.20
2019-06-21T11:19:37.900Z,21.00
2019-06-21T11:22:08.014Z,20.90
2019-06-21T11:24:37.778Z,20.10
2019-06-21T11:27:07.486Z,19.70
2019-06-21T11:29:37.146Z,22.00
2019-06-21T11:32:07.480Z,19.20
2019-06-21T11:34:37.197Z,20.00
2019-06-21T11:37:07.121Z,21.50
2019-06-21T11:39:36.884Z,19.80
2019-06-21T11:42:08.190Z,19.30
2019-06-21T11:44:37.872Z,19.90
2019-06-21T11:47:08.918Z,17.50
2019-06-21T11:49:40.607Z,17.20
2019-06-21T11:52:10.951Z,17.40
2019-06-21T11:54:42.722Z,17.20
2019-06-21T11:57:15.064Z,17.10
2019-06-21T11:59:44.722Z,17.20
2019-06-21T12:02:16.963Z,17.10
2019-06-21T12:04:46.682Z,14.20
2019-06-21T12:07:16.426Z,14.10
2019-06-21T12:09:46.077Z,16.50
2019-06-21T12:12:15.713Z,15.70
2019-06-21T12:14:45.374Z,13.40
2019-06-21T12:17:15.013Z,16.00
2019-06-21T12:19:44.729Z,16.20
2019-06-21T12:22:14.458Z,16.10
2019-06-21T12:24:44.103Z,17.40
2019-06-21T12:27:16.445Z,17.10
2019-06-21T12:29:46.087Z,16.60
2019-06-21T12:32:15.678Z,17.40
2019-06-21T12:34:45.331Z,16.60
2019-06-21T12:37:15.041Z,16.90
2019-06-21T12:39:44.663Z,14.40
2019-06-21T12:42:14.258Z,14.50
2019-06-21T12:44:49.486Z,15.70
2019-06-21T12:47:15.543Z,17.70
2019-06-21T12:49:45.192Z,15.60
2019-06-21T12:52:14.836Z,17.40
2019-06-21T12:54:44.488Z,16.10
2019-06-21T12:57:14.091Z,16.10
2019-06-21T12:59:43.821Z,16.70
2019-06-21T13:02:13.436Z,16.10
2019-06-21T13:04:49.431Z,15.20
2019-06-21T13:07:25.353Z,15.10
2019-06-21T13:09:45.740Z,15.00
2019-06-21T13:12:17.216Z,13.90
2019-06-21T13:14:46.667Z,15.20
2019-06-21T13:17:16.294Z,15.20
2019-06-21T13:19:45.927Z,15.50
2019-06-21T13:22:15.567Z,14.80
2019-06-21T13:24:45.412Z,13.20
2019-06-21T13:27:15.019Z,12.40
2019-06-21T13:29:44.655Z,12.60
2019-06-21T13:32:14.467Z,12.20
2019-06-21T13:34:44.159Z,11.10
2019-06-21T13:37:14.837Z,10.20
2019-06-21T13:39:47.838Z,8.90
2019-06-21T13:42:17.472Z,10.10
2019-06-21T13:44:47.109Z,10.70
2019-06-21T13:47:16.762Z,9.50
2019-06-21T13:49:46.868Z,11.40
2019-06-21T13:52:16.479Z,12.30
2019-06-21T13:54:46.132Z,12.40
2019-06-21T13:57:15.731Z,12.30
2019-06-21T13:59:45.404Z,12.60
2019-06-21T14:02:15.152Z,12.80
2019-06-21T14:04:44.913Z,12.30
2019-06-21T14:07:14.577Z,12.60
2019-06-21T14:09:47.177Z,10.90
2019-06-21T14:12:15.539Z,12.90
2019-06-21T14:14:45.183Z,13.30
2019-06-21T14:17:14.922Z,13.20
2019-06-21T14:19:44.722Z,13.30
2019-06-21T14:22:14.428Z,14.00
2019-06-21T14:24:44.153Z,13.50
2019-06-21T14:27:14.575Z,13.80
2019-06-21T14:29:44.293Z,13.90
2019-06-21T14:32:14.090Z,14.80
2019-06-21T14:34:43.786Z,14.10
2019-06-21T14:37:13.419Z,14.70
2019-06-21T14:39:43.116Z,14.30
2019-06-21T14:42:12.869Z,13.90
2019-06-21T14:44:42.467Z,13.60
2019-06-21T14:47:12.130Z,13.90
2019-06-21T14:49:41.729Z,12.40
2019-06-21T14:52:11.362Z,12.90
2019-06-21T14:54:41.060Z,13.20
2019-06-21T14:57:10.681Z,20.10
2019-06-21T14:59:48.647Z,25.60
2019-06-21T15:02:13.851Z,28.10
2019-06-21T15:04:43.429Z,41.90
2019-06-21T15:07:23.065Z,99.90
2019-06-21T15:09:44.450Z,99.90
2019-06-21T15:12:14.092Z,99.90
2019-06-21T15:14:43.719Z,99.90
2019-06-21T15:17:13.420Z,99.90
2019-06-21T15:19:45.843Z,99.90
2019-06-21T15:22:14.322Z,99.90
2019-06-21T15:24:43.940Z,99.90
2019-06-21T15:27:13.588Z,99.90
2019-06-21T15:29:43.256Z,99.90
2019-06-21T15:32:51.578Z,99.90
2019-06-21T15:35:21.371Z,99.90
2019-06-21T15:37:51.127Z,99.90
2019-06-21T15:40:20.939Z,99.90
2019-06-21T15:42:53.594Z,99.90
2019-06-21T15:45:23.963Z,99.90
2019-06-21T15:47:55.082Z,99.90
2019-06-21T15:50:25.110Z,99.90
2019-06-21T15:52:58.813Z,99.90
2019-06-21T15:55:28.503Z,99.90
2019-06-21T15:57:59.931Z,99.90
2019-06-21T16:00:29.627Z,99.90
2019-06-21T16:03:00.214Z,99.90
2019-06-21T16:05:30.578Z,99.90
2019-06-21T16:08:00.800Z,99.90
2019-06-21T16:10:31.448Z,99.90
2019-06-21T16:13:01.085Z,99.90
2019-06-21T16:15:30.694Z,99.90
2019-06-21T16:18:00.366Z,99.90
2019-06-21T16:20:29.976Z,99.90
2019-06-21T16:22:59.625Z,99.90
2019-06-21T16:25:29.418Z,99.90
2019-06-21T16:27:59.051Z,99.90
2019-06-21T16:30:31.750Z,99.90
2019-06-21T16:33:06.969Z,99.90
2019-06-21T16:35:36.586Z,99.90
2019-06-21T16:38:06.236Z,99.90
2019-06-21T16:40:37.074Z,99.90
2019-06-21T16:43:06.858Z,99.90
2019-06-21T16:45:36.578Z,99.90
2019-06-21T16:48:06.418Z,99.90
2019-06-21T16:50:36.023Z,99.90
2019-06-21T16:53:05.643Z,99.90
2019-06-21T16:55:35.658Z,99.90
2019-06-21T16:58:07.731Z,99.90
2019-06-21T17:00:47.241Z,99.90
2019-06-21T17:03:19.499Z,99.90
2019-06-21T17:05:49.262Z,99.90
2019-06-21T17:08:19.225Z,99.90
2019-06-21T17:10:48.884Z,99.90
2019-06-21T17:13:18.627Z,99.90
2019-06-21T17:15:48.387Z,99.90
2019-06-21T17:18:18.066Z,99.90
2019-06-21T17:20:47.766Z,99.90
2019-06-21T17:23:17.563Z,99.90
2019-06-21T17:25:47.199Z,99.90
2019-06-21T17:28:17.605Z,99.90
2019-06-21T17:30:47.940Z,99.90
2019-06-21T17:33:19.428Z,99.80
2019-06-21T17:35:51.009Z,35.20
2019-06-21T17:38:24.188Z,31.90
2019-06-21T17:40:54.065Z,29.10
2019-06-21T17:43:24.114Z,25.10
2019-06-21T17:45:53.704Z,24.80
2019-06-21T17:48:24.017Z,23.20
2019-06-21T17:50:53.674Z,24.40
2019-06-21T17:53:23.302Z,23.80
2019-06-21T17:55:52.893Z,23.20
2019-06-21T17:58:22.536Z,24.90
2019-06-21T18:00:52.196Z,24.30
2019-06-21T18:03:22.250Z,22.20
2019-06-21T18:05:52.011Z,20.60
2019-06-21T18:08:21.642Z,20.30
2019-06-21T18:10:51.363Z,20.50
2019-06-21T18:13:21.254Z,20.60
2019-06-21T18:15:50.884Z,21.00
2019-06-21T18:18:22.666Z,20.80
2019-06-21T18:20:52.360Z,20.90
2019-06-21T18:23:22.102Z,21.20
2019-06-21T18:25:51.843Z,21.70
2019-06-21T18:28:30.020Z,23.20
2019-06-21T18:31:11.664Z,22.90
2019-06-21T18:33:44.224Z,23.90
2019-06-21T18:36:13.938Z,24.80
2019-06-21T18:38:43.711Z,26.00
2019-06-21T18:41:13.484Z,25.30
2019-06-21T18:43:45.595Z,25.50
2019-06-21T18:46:15.211Z,24.40
2019-06-21T18:48:44.871Z,24.00
2019-06-21T18:51:14.582Z,25.30
2019-06-21T18:53:44.293Z,24.00
2019-06-21T18:56:14.018Z,26.60
2019-06-21T18:58:43.683Z,28.70
2019-06-21T19:01:13.330Z,28.60
2019-06-21T19:03:42.987Z,25.60
2019-06-21T19:06:12.729Z,25.80
2019-06-21T19:08:42.410Z,25.80
2019-06-21T19:11:12.041Z,24.40
2019-06-21T19:13:42.403Z,23.50
2019-06-21T19:16:12.315Z,22.40
2019-06-21T19:18:42.047Z,21.40
2019-06-21T19:21:11.796Z,20.10
2019-06-21T19:23:41.845Z,21.00
2019-06-21T19:26:11.580Z,19.50
2019-06-21T19:28:41.285Z,18.60
2019-06-21T19:31:10.972Z,18.40
2019-06-21T19:33:40.584Z,18.30
2019-06-21T19:36:10.493Z,18.10
2019-06-21T19:38:40.149Z,17.40
2019-06-21T19:41:09.802Z,17.70
2019-06-21T19:43:39.478Z,17.60
2019-06-21T19:46:10.843Z,17.20
2019-06-21T19:48:43.485Z,16.80
2019-06-21T19:51:11.792Z,16.60
2019-06-21T19:53:41.390Z,17.50
2019-06-21T19:56:11.033Z,17.50
2019-06-21T19:58:41.268Z,19.60
2019-06-21T20:01:11.016Z,31.70
2019-06-21T20:03:40.603Z,44.20
2019-06-21T20:06:10.342Z,48.10
2019-06-21T20:08:40.201Z,46.00
2019-06-21T20:11:09.930Z,42.60
2019-06-21T20:13:39.641Z,40.50
2019-06-21T20:16:09.296Z,39.80
2019-06-21T20:18:39.003Z,38.00
2019-06-21T20:21:08.701Z,40.20
2019-06-21T20:23:38.378Z,60.50
2019-06-21T20:26:08.128Z,39.60
2019-06-21T20:28:37.944Z,79.00
2019-06-21T20:31:07.585Z,85.30
2019-06-21T20:33:37.228Z,86.20
2019-06-21T20:36:07.110Z,86.70
2019-06-21T20:38:36.901Z,84.90
2019-06-21T20:41:06.610Z,50.50
2019-06-21T20:43:36.277Z,60.40
2019-06-21T20:46:06.043Z,72.70
2019-06-21T20:48:35.733Z,74.50
2019-06-21T20:51:05.378Z,78.40
2019-06-21T20:53:34.985Z,81.50
2019-06-21T20:58:33.835Z,94.40
2019-06-21T21:01:03.779Z,98.70
2019-06-21T21:03:33.616Z,99.90
2019-06-21T21:06:03.519Z,99.90
2019-06-21T21:08:33.740Z,99.90
2019-06-21T21:11:03.428Z,99.90
2019-06-21T21:13:33.137Z,99.90
2019-06-21T21:16:03.108Z,99.90
2019-06-21T21:18:32.882Z,99.90
2019-06-21T21:21:02.592Z,99.90
2019-06-21T21:23:33.183Z,99.90
2019-06-21T21:26:02.915Z,99.90
2019-06-21T21:28:32.583Z,99.90
2019-06-21T21:31:02.408Z,99.90
2019-06-21T21:33:32.012Z,99.90
2019-06-21T21:36:01.710Z,99.90
2019-06-21T21:38:31.468Z,99.90
2019-06-21T21:41:01.264Z,99.90
2019-06-21T21:43:30.912Z,99.90
2019-06-21T21:46:00.552Z,99.90
2019-06-21T21:48:30.206Z,99.90
2019-06-21T21:50:59.866Z,99.90
2019-06-21T21:57:02.986Z,99.90
2019-06-21T21:59:32.675Z,99.90
2019-06-21T22:02:02.378Z,99.90
2019-06-21T22:04:32.058Z,99.90
2019-06-21T22:07:01.729Z,99.90
2019-06-21T22:09:39.822Z,99.70
2019-06-21T22:12:09.467Z,98.50
2019-06-21T22:14:39.077Z,95.90
2019-06-21T22:17:08.724Z,95.30
2019-06-21T22:19:38.395Z,96.00
2019-06-21T22:22:08.076Z,96.00
2019-06-21T22:24:37.711Z,96.70
2019-06-21T22:27:07.393Z,96.30
2019-06-21T22:29:37.991Z,95.90
2019-06-21T22:32:22.296Z,94.40
2019-06-21T22:34:52.235Z,93.20
2019-06-21T22:37:21.929Z,92.80
2019-06-21T22:39:53.639Z,93.10
2019-06-21T22:42:26.398Z,95.60
2019-06-21T22:44:56.115Z,95.50
2019-06-21T22:47:25.804Z,96.00
2019-06-21T22:49:55.503Z,94.80
2019-06-21T22:52:25.167Z,94.80
2019-06-21T22:54:54.828Z,95.40
2019-06-21T22:57:24.676Z,95.60
2019-06-21T22:59:54.387Z,96.20
2019-06-21T23:02:26.239Z,96.30
2019-06-21T23:04:56.006Z,96.60
2019-06-21T23:08:25.436Z,96.00
2019-06-21T23:10:55.094Z,97.40
2019-06-21T23:13:28.309Z,97.60
2019-06-21T23:16:01.513Z,97.70
2019-06-21T23:18:40.961Z,97.20
2019-06-21T23:21:12.965Z,97.80
2019-06-21T23:24:03.971Z,98.10
2019-06-21T23:26:43.754Z,98.20
2019-06-21T23:29:13.474Z,98.20
2019-06-21T23:31:49.627Z,98.20
2019-06-21T23:34:22.332Z,98.40
2019-06-21T23:36:51.897Z,98.20
2019-06-21T23:39:22.646Z,97.20
2019-06-21T23:41:52.259Z,96.60
2019-06-21T23:44:22.009Z,96.80
2019-06-21T23:46:51.612Z,96.90
2019-06-21T23:49:22.112Z,96.60
2019-06-21T23:51:51.755Z,96.30
2019-06-21T23:54:21.410Z,96.10
2019-06-21T23:56:51.013Z,95.90
2019-06-21T23:59:20.737Z,96.20
